sensor_id;sensor_type;location;lat;lon;timestamp;P1;durP1;ratioP1;P2;durP2;ratioP2
44214;SDS011;29884;47.450;19.124;2023-04-06T00:01:38;6.00;;;2.25;;
44214;SDS011;29884;47.450;19.124;2023-04-06T00:04:04;6.88;;;2.60;;
44214;SDS011;29884;47.450;19.124;2023-04-06T00:06:31;4.57;;;2.45;;
44214;SDS011;29884;47.450;19.124;2023-04-06T00:08:57;5.32;;;2.60;;
44214;SDS011;29884;47.450;19.124;2023-04-06T00:11:23;4.80;;;2.20;;
44214;SDS011;29884;47.450;19.124;2023-04-06T00:13:49;4.90;;;2.60;;
44214;SDS011;29884;47.450;19.124;2023-04-06T00:16:15;4.22;;;2.55;;
44214;SDS011;29884;47.450;19.124;2023-04-06T00:18:41;6.07;;;2.80;;
44214;SDS011;29884;47.450;19.124;2023-04-06T00:21:07;5.65;;;2.50;;
44214;SDS011;29884;47.450;19.124;2023-04-06T00:23:32;8.20;;;2.92;;
44214;SDS011;29884;47.450;19.124;2023-04-06T00:25:58;4.47;;;2.60;;
44214;SDS011;29884;47.450;19.124;2023-04-06T00:28:24;9.23;;;2.78;;
44214;SDS011;29884;47.450;19.124;2023-04-06T00:30:51;5.72;;;2.47;;
44214;SDS011;29884;47.450;19.124;2023-04-06T00:33:18;5.10;;;2.53;;
44214;SDS011;29884;47.450;19.124;2023-04-06T00:35:44;5.13;;;2.60;;
44214;SDS011;29884;47.450;19.124;2023-04-06T00:38:11;6.22;;;2.67;;
44214;SDS011;29884;47.450;19.124;2023-04-06T00:40:37;5.07;;;2.50;;
44214;SDS011;29884;47.450;19.124;2023-04-06T00:43:05;4.18;;;2.20;;
44214;SDS011;29884;47.450;19.124;2023-04-06T00:45:31;6.22;;;2.50;;
44214;SDS011;29884;47.450;19.124;2023-04-06T00:47:57;4.25;;;2.65;;
44214;SDS011;29884;47.450;19.124;2023-04-06T00:50:23;7.63;;;2.90;;
44214;SDS011;29884;47.450;19.124;2023-04-06T00:52:49;8.20;;;3.15;;
44214;SDS011;29884;47.450;19.124;2023-04-06T00:55:15;5.68;;;2.75;;
44214;SDS011;29884;47.450;19.124;2023-04-06T00:57:41;7.05;;;2.80;;
44214;SDS011;29884;47.450;19.124;2023-04-06T01:00:07;7.55;;;3.10;;
44214;SDS011;29884;47.450;19.124;2023-04-06T01:02:33;5.38;;;2.58;;
44214;SDS011;29884;47.450;19.124;2023-04-06T01:04:59;6.15;;;3.03;;
44214;SDS011;29884;47.450;19.124;2023-04-06T01:07:25;5.38;;;2.67;;
44214;SDS011;29884;47.450;19.124;2023-04-06T01:09:52;6.55;;;2.88;;
44214;SDS011;29884;47.450;19.124;2023-04-06T01:12:18;6.03;;;3.50;;
44214;SDS011;29884;47.450;19.124;2023-04-06T01:14:44;7.97;;;3.20;;
44214;SDS011;29884;47.450;19.124;2023-04-06T01:17:10;9.30;;;3.92;;
44214;SDS011;29884;47.450;19.124;2023-04-06T01:19:36;7.60;;;3.72;;
44214;SDS011;29884;47.450;19.124;2023-04-06T01:22:02;8.07;;;3.80;;
44214;SDS011;29884;47.450;19.124;2023-04-06T01:24:28;9.63;;;3.53;;
44214;SDS011;29884;47.450;19.124;2023-04-06T01:26:53;9.32;;;4.43;;
44214;SDS011;29884;47.450;19.124;2023-04-06T01:29:19;8.45;;;4.20;;
44214;SDS011;29884;47.450;19.124;2023-04-06T01:31:45;8.82;;;3.95;;
44214;SDS011;29884;47.450;19.124;2023-04-06T01:34:11;6.50;;;3.70;;
44214;SDS011;29884;47.450;19.124;2023-04-06T01:36:37;9.70;;;3.85;;
44214;SDS011;29884;47.450;19.124;2023-04-06T01:39:02;11.80;;;4.68;;
44214;SDS011;29884;47.450;19.124;2023-04-06T01:41:28;7.50;;;3.95;;
44214;SDS011;29884;47.450;19.124;2023-04-06T01:43:54;7.90;;;3.95;;
44214;SDS011;29884;47.450;19.124;2023-04-06T01:46:20;9.32;;;4.40;;
44214;SDS011;29884;47.450;19.124;2023-04-06T01:48:46;9.32;;;4.07;;
44214;SDS011;29884;47.450;19.124;2023-04-06T01:51:11;6.80;;;3.75;;
44214;SDS011;29884;47.450;19.124;2023-04-06T01:53:37;7.28;;;3.33;;
44214;SDS011;29884;47.450;19.124;2023-04-06T01:56:03;6.47;;;3.55;;
44214;SDS011;29884;47.450;19.124;2023-04-06T01:58:29;7.80;;;3.67;;
44214;SDS011;29884;47.450;19.124;2023-04-06T02:00:55;6.65;;;3.38;;
44214;SDS011;29884;47.450;19.124;2023-04-06T02:03:21;10.13;;;3.80;;
44214;SDS011;29884;47.450;19.124;2023-04-06T02:05:47;11.23;;;3.72;;
44214;SDS011;29884;47.450;19.124;2023-04-06T02:08:13;6.32;;;3.70;;
44214;SDS011;29884;47.450;19.124;2023-04-06T02:10:39;8.50;;;3.75;;
44214;SDS011;29884;47.450;19.124;2023-04-06T02:13:05;6.43;;;4.05;;
44214;SDS011;29884;47.450;19.124;2023-04-06T02:15:30;7.65;;;3.80;;
44214;SDS011;29884;47.450;19.124;2023-04-06T02:17:56;9.57;;;4.13;;
44214;SDS011;29884;47.450;19.124;2023-04-06T02:20:22;10.65;;;4.22;;
44214;SDS011;29884;47.450;19.124;2023-04-06T02:22:48;8.85;;;3.63;;
44214;SDS011;29884;47.450;19.124;2023-04-06T02:25:14;10.38;;;3.78;;
44214;SDS011;29884;47.450;19.124;2023-04-06T02:27:40;6.35;;;3.38;;
44214;SDS011;29884;47.450;19.124;2023-04-06T02:30:06;8.65;;;3.35;;
44214;SDS011;29884;47.450;19.124;2023-04-06T02:32:32;9.43;;;4.18;;
44214;SDS011;29884;47.450;19.124;2023-04-06T02:34:58;6.22;;;3.55;;
44214;SDS011;29884;47.450;19.124;2023-04-06T02:37:24;6.65;;;3.53;;
44214;SDS011;29884;47.450;19.124;2023-04-06T02:39:50;7.90;;;3.67;;
44214;SDS011;29884;47.450;19.124;2023-04-06T02:42:16;6.72;;;3.45;;
44214;SDS011;29884;47.450;19.124;2023-04-06T02:44:42;9.73;;;4.10;;
44214;SDS011;29884;47.450;19.124;2023-04-06T02:47:08;11.10;;;3.50;;
44214;SDS011;29884;47.450;19.124;2023-04-06T02:49:34;7.93;;;3.75;;
44214;SDS011;29884;47.450;19.124;2023-04-06T02:52:00;10.32;;;4.00;;
44214;SDS011;29884;47.450;19.124;2023-04-06T02:54:25;10.23;;;4.13;;
44214;SDS011;29884;47.450;19.124;2023-04-06T02:56:51;9.88;;;3.78;;
44214;SDS011;29884;47.450;19.124;2023-04-06T02:59:17;11.68;;;4.00;;
44214;SDS011;29884;47.450;19.124;2023-04-06T03:01:42;8.27;;;3.92;;
44214;SDS011;29884;47.450;19.124;2023-04-06T03:04:08;10.27;;;4.00;;
44214;SDS011;29884;47.450;19.124;2023-04-06T03:06:34;7.65;;;4.18;;
44214;SDS011;29884;47.450;19.124;2023-04-06T03:09:00;10.30;;;4.35;;
44214;SDS011;29884;47.450;19.124;2023-04-06T03:11:26;7.80;;;4.28;;
44214;SDS011;29884;47.450;19.124;2023-04-06T03:13:51;11.68;;;4.18;;
44214;SDS011;29884;47.450;19.124;2023-04-06T03:16:17;8.70;;;4.85;;
44214;SDS011;29884;47.450;19.124;2023-04-06T03:18:43;9.57;;;4.13;;
44214;SDS011;29884;47.450;19.124;2023-04-06T03:21:14;10.70;;;5.05;;
44214;SDS011;29884;47.450;19.124;2023-04-06T03:23:40;10.52;;;4.45;;
44214;SDS011;29884;47.450;19.124;2023-04-06T03:26:07;7.50;;;4.93;;
44214;SDS011;29884;47.450;19.124;2023-04-06T03:28:32;10.57;;;5.05;;
44214;SDS011;29884;47.450;19.124;2023-04-06T03:30:58;9.77;;;4.78;;
44214;SDS011;29884;47.450;19.124;2023-04-06T03:33:24;11.30;;;5.63;;
44214;SDS011;29884;47.450;19.124;2023-04-06T03:35:52;12.30;;;5.43;;
44214;SDS011;29884;47.450;19.124;2023-04-06T03:38:18;9.40;;;5.72;;
44214;SDS011;29884;47.450;19.124;2023-04-06T03:40:44;14.25;;;5.95;;
44214;SDS011;29884;47.450;19.124;2023-04-06T03:43:10;10.10;;;5.70;;
44214;SDS011;29884;47.450;19.124;2023-04-06T03:45:36;11.82;;;4.90;;
44214;SDS011;29884;47.450;19.124;2023-04-06T03:48:02;8.40;;;4.65;;
44214;SDS011;29884;47.450;19.124;2023-04-06T03:50:28;9.65;;;4.78;;
44214;SDS011;29884;47.450;19.124;2023-04-06T03:52:54;9.18;;;4.72;;
44214;SDS011;29884;47.450;19.124;2023-04-06T03:55:20;8.65;;;4.68;;
44214;SDS011;29884;47.450;19.124;2023-04-06T03:57:46;13.52;;;5.15;;
44214;SDS011;29884;47.450;19.124;2023-04-06T04:00:12;13.20;;;4.68;;
44214;SDS011;29884;47.450;19.124;2023-04-06T04:02:38;9.15;;;4.78;;
44214;SDS011;29884;47.450;19.124;2023-04-06T04:05:04;20.00;;;9.80;;
44214;SDS011;29884;47.450;19.124;2023-04-06T04:07:30;15.48;;;8.43;;
44214;SDS011;29884;47.450;19.124;2023-04-06T04:09:56;14.88;;;6.72;;
44214;SDS011;29884;47.450;19.124;2023-04-06T04:12:21;14.23;;;7.18;;
44214;SDS011;29884;47.450;19.124;2023-04-06T04:14:47;12.63;;;5.72;;
44214;SDS011;29884;47.450;19.124;2023-04-06T04:17:13;10.85;;;5.70;;
44214;SDS011;29884;47.450;19.124;2023-04-06T04:19:39;8.68;;;5.78;;
44214;SDS011;29884;47.450;19.124;2023-04-06T04:22:05;11.00;;;5.18;;
44214;SDS011;29884;47.450;19.124;2023-04-06T04:24:31;13.43;;;5.82;;
44214;SDS011;29884;47.450;19.124;2023-04-06T04:26:57;9.38;;;5.38;;
44214;SDS011;29884;47.450;19.124;2023-04-06T04:29:23;12.35;;;5.22;;
44214;SDS011;29884;47.450;19.124;2023-04-06T04:31:49;12.70;;;5.72;;
44214;SDS011;29884;47.450;19.124;2023-04-06T04:34:16;12.20;;;5.05;;
44214;SDS011;29884;47.450;19.124;2023-04-06T04:36:41;23.67;;;5.60;;
44214;SDS011;29884;47.450;19.124;2023-04-06T04:39:08;13.88;;;5.25;;
44214;SDS011;29884;47.450;19.124;2023-04-06T04:41:34;12.40;;;5.10;;
44214;SDS011;29884;47.450;19.124;2023-04-06T04:44:00;14.45;;;5.80;;
44214;SDS011;29884;47.450;19.124;2023-04-06T04:46:26;15.40;;;6.15;;
44214;SDS011;29884;47.450;19.124;2023-04-06T04:48:52;12.35;;;5.38;;
44214;SDS011;29884;47.450;19.124;2023-04-06T04:51:18;15.82;;;5.75;;
44214;SDS011;29884;47.450;19.124;2023-04-06T04:53:44;11.40;;;5.50;;
44214;SDS011;29884;47.450;19.124;2023-04-06T04:56:10;8.98;;;4.88;;
44214;SDS011;29884;47.450;19.124;2023-04-06T04:58:36;11.15;;;5.60;;
44214;SDS011;29884;47.450;19.124;2023-04-06T05:01:02;9.45;;;5.05;;
44214;SDS011;29884;47.450;19.124;2023-04-06T05:03:28;13.40;;;5.75;;
44214;SDS011;29884;47.450;19.124;2023-04-06T05:05:54;10.82;;;5.38;;
44214;SDS011;29884;47.450;19.124;2023-04-06T05:08:20;16.02;;;5.13;;
44214;SDS011;29884;47.450;19.124;2023-04-06T05:10:46;10.75;;;4.95;;
44214;SDS011;29884;47.450;19.124;2023-04-06T05:13:13;13.02;;;5.68;;
44214;SDS011;29884;47.450;19.124;2023-04-06T05:15:39;12.65;;;6.05;;
44214;SDS011;29884;47.450;19.124;2023-04-06T05:18:06;11.63;;;5.47;;
44214;SDS011;29884;47.450;19.124;2023-04-06T05:20:33;13.60;;;6.38;;
44214;SDS011;29884;47.450;19.124;2023-04-06T05:22:59;14.45;;;6.15;;
44214;SDS011;29884;47.450;19.124;2023-04-06T05:25:25;13.55;;;5.75;;
44214;SDS011;29884;47.450;19.124;2023-04-06T05:27:51;10.65;;;5.43;;
44214;SDS011;29884;47.450;19.124;2023-04-06T05:30:17;11.27;;;5.40;;
44214;SDS011;29884;47.450;19.124;2023-04-06T05:32:43;13.18;;;5.50;;
44214;SDS011;29884;47.450;19.124;2023-04-06T05:35:10;10.30;;;5.72;;
44214;SDS011;29884;47.450;19.124;2023-04-06T05:37:37;16.60;;;6.03;;
44214;SDS011;29884;47.450;19.124;2023-04-06T05:40:03;11.15;;;5.57;;
44214;SDS011;29884;47.450;19.124;2023-04-06T05:42:36;9.52;;;4.65;;
44214;SDS011;29884;47.450;19.124;2023-04-06T05:45:06;13.07;;;5.03;;
44214;SDS011;29884;47.450;19.124;2023-04-06T05:47:32;15.13;;;5.30;;
44214;SDS011;29884;47.450;19.124;2023-04-06T05:49:58;10.02;;;5.40;;
44214;SDS011;29884;47.450;19.124;2023-04-06T05:52:24;9.00;;;5.07;;
44214;SDS011;29884;47.450;19.124;2023-04-06T05:54:50;13.57;;;5.75;;
44214;SDS011;29884;47.450;19.124;2023-04-06T05:57:16;16.48;;;6.70;;
44214;SDS011;29884;47.450;19.124;2023-04-06T05:59:42;12.07;;;5.78;;
44214;SDS011;29884;47.450;19.124;2023-04-06T06:02:08;11.70;;;5.30;;
44214;SDS011;29884;47.450;19.124;2023-04-06T06:04:34;9.75;;;5.20;;
44214;SDS011;29884;47.450;19.124;2023-04-06T06:07:00;12.80;;;5.32;;
44214;SDS011;29884;47.450;19.124;2023-04-06T06:09:26;11.20;;;5.32;;
44214;SDS011;29884;47.450;19.124;2023-04-06T06:11:52;10.93;;;5.47;;
44214;SDS011;29884;47.450;19.124;2023-04-06T06:14:17;9.30;;;5.53;;
44214;SDS011;29884;47.450;19.124;2023-04-06T06:16:43;11.95;;;5.85;;
44214;SDS011;29884;47.450;19.124;2023-04-06T06:19:09;16.98;;;6.07;;
44214;SDS011;29884;47.450;19.124;2023-04-06T06:21:35;15.63;;;5.72;;
44214;SDS011;29884;47.450;19.124;2023-04-06T06:24:01;13.70;;;5.68;;
44214;SDS011;29884;47.450;19.124;2023-04-06T06:26:27;10.60;;;5.53;;
44214;SDS011;29884;47.450;19.124;2023-04-06T06:28:53;13.15;;;5.70;;
44214;SDS011;29884;47.450;19.124;2023-04-06T06:31:19;11.68;;;5.57;;
44214;SDS011;29884;47.450;19.124;2023-04-06T06:33:50;10.40;;;5.80;;
44214;SDS011;29884;47.450;19.124;2023-04-06T06:36:17;12.50;;;5.82;;
44214;SDS011;29884;47.450;19.124;2023-04-06T06:38:43;14.70;;;5.38;;
44214;SDS011;29884;47.450;19.124;2023-04-06T06:41:09;8.05;;;4.85;;
44214;SDS011;29884;47.450;19.124;2023-04-06T06:43:36;7.57;;;4.10;;
44214;SDS011;29884;47.450;19.124;2023-04-06T06:46:04;10.75;;;4.13;;
44214;SDS011;29884;47.450;19.124;2023-04-06T06:48:31;7.45;;;4.18;;
44214;SDS011;29884;47.450;19.124;2023-04-06T06:50:57;12.77;;;4.85;;
44214;SDS011;29884;47.450;19.124;2023-04-06T06:53:23;8.38;;;4.43;;
44214;SDS011;29884;47.450;19.124;2023-04-06T06:55:49;8.98;;;4.45;;
44214;SDS011;29884;47.450;19.124;2023-04-06T06:58:15;28.98;;;5.63;;
44214;SDS011;29884;47.450;19.124;2023-04-06T07:00:42;9.77;;;4.25;;
44214;SDS011;29884;47.450;19.124;2023-04-06T07:03:08;8.93;;;4.55;;
44214;SDS011;29884;47.450;19.124;2023-04-06T07:05:34;9.50;;;4.07;;
44214;SDS011;29884;47.450;19.124;2023-04-06T07:08:00;7.38;;;4.15;;
44214;SDS011;29884;47.450;19.124;2023-04-06T07:10:26;11.88;;;4.70;;
44214;SDS011;29884;47.450;19.124;2023-04-06T07:12:52;14.07;;;4.40;;
44214;SDS011;29884;47.450;19.124;2023-04-06T07:15:18;6.93;;;3.40;;
44214;SDS011;29884;47.450;19.124;2023-04-06T07:17:43;11.55;;;4.97;;
44214;SDS011;29884;47.450;19.124;2023-04-06T07:20:12;8.43;;;4.80;;
44214;SDS011;29884;47.450;19.124;2023-04-06T07:22:39;10.07;;;4.45;;
44214;SDS011;29884;47.450;19.124;2023-04-06T07:25:05;15.68;;;7.07;;
44214;SDS011;29884;47.450;19.124;2023-04-06T07:27:31;9.57;;;3.97;;
44214;SDS011;29884;47.450;19.124;2023-04-06T07:29:57;11.95;;;4.00;;
44214;SDS011;29884;47.450;19.124;2023-04-06T07:32:23;6.82;;;3.33;;
44214;SDS011;29884;47.450;19.124;2023-04-06T07:34:48;16.88;;;5.10;;
44214;SDS011;29884;47.450;19.124;2023-04-06T07:37:14;11.32;;;3.70;;
44214;SDS011;29884;47.450;19.124;2023-04-06T07:39:40;11.77;;;3.47;;
44214;SDS011;29884;47.450;19.124;2023-04-06T07:42:06;17.88;;;5.25;;
44214;SDS011;29884;47.450;19.124;2023-04-06T07:44:32;14.60;;;4.38;;
44214;SDS011;29884;47.450;19.124;2023-04-06T07:46:58;8.90;;;3.33;;
44214;SDS011;29884;47.450;19.124;2023-04-06T07:49:23;11.25;;;3.65;;
44214;SDS011;29884;47.450;19.124;2023-04-06T07:51:49;9.10;;;3.90;;
44214;SDS011;29884;47.450;19.124;2023-04-06T07:54:15;11.25;;;4.05;;
44214;SDS011;29884;47.450;19.124;2023-04-06T07:56:41;22.08;;;4.55;;
44214;SDS011;29884;47.450;19.124;2023-04-06T07:59:06;16.20;;;4.45;;
44214;SDS011;29884;47.450;19.124;2023-04-06T08:01:32;7.60;;;3.40;;
44214;SDS011;29884;47.450;19.124;2023-04-06T08:03:58;7.55;;;3.10;;
44214;SDS011;29884;47.450;19.124;2023-04-06T08:06:26;12.55;;;4.55;;
44214;SDS011;29884;47.450;19.124;2023-04-06T08:08:51;8.80;;;3.53;;
44214;SDS011;29884;47.450;19.124;2023-04-06T08:11:17;8.20;;;3.47;;
44214;SDS011;29884;47.450;19.124;2023-04-06T08:13:43;6.45;;;3.15;;
44214;SDS011;29884;47.450;19.124;2023-04-06T08:16:09;6.93;;;3.10;;
44214;SDS011;29884;47.450;19.124;2023-04-06T08:18:34;4.70;;;3.13;;
44214;SDS011;29884;47.450;19.124;2023-04-06T08:21:00;6.63;;;3.13;;
44214;SDS011;29884;47.450;19.124;2023-04-06T08:23:26;7.57;;;3.67;;
44214;SDS011;29884;47.450;19.124;2023-04-06T08:25:52;5.78;;;3.50;;
44214;SDS011;29884;47.450;19.124;2023-04-06T08:28:19;7.28;;;3.28;;
44214;SDS011;29884;47.450;19.124;2023-04-06T08:30:46;6.63;;;3.67;;
44214;SDS011;29884;47.450;19.124;2023-04-06T08:33:12;10.02;;;3.67;;
44214;SDS011;29884;47.450;19.124;2023-04-06T08:35:38;6.07;;;3.83;;
44214;SDS011;29884;47.450;19.124;2023-04-06T08:38:03;6.95;;;3.78;;
44214;SDS011;29884;47.450;19.124;2023-04-06T08:40:29;9.20;;;4.43;;
44214;SDS011;29884;47.450;19.124;2023-04-06T08:42:56;6.30;;;3.55;;
44214;SDS011;29884;47.450;19.124;2023-04-06T08:45:24;6.80;;;2.90;;
44214;SDS011;29884;47.450;19.124;2023-04-06T08:47:51;9.10;;;3.25;;
44214;SDS011;29884;47.450;19.124;2023-04-06T08:50:20;8.00;;;3.38;;
44214;SDS011;29884;47.450;19.124;2023-04-06T08:52:46;8.80;;;3.33;;
44214;SDS011;29884;47.450;19.124;2023-04-06T08:55:13;8.00;;;3.45;;
44214;SDS011;29884;47.450;19.124;2023-04-06T08:57:40;5.75;;;3.38;;
44214;SDS011;29884;47.450;19.124;2023-04-06T09:00:07;7.35;;;4.00;;
44214;SDS011;29884;47.450;19.124;2023-04-06T09:02:37;8.18;;;3.63;;
44214;SDS011;29884;47.450;19.124;2023-04-06T09:05:06;7.22;;;3.58;;
44214;SDS011;29884;47.450;19.124;2023-04-06T09:07:35;7.38;;;3.38;;
44214;SDS011;29884;47.450;19.124;2023-04-06T09:10:06;6.45;;;3.30;;
44214;SDS011;29884;47.450;19.124;2023-04-06T09:12:32;8.65;;;3.72;;
44214;SDS011;29884;47.450;19.124;2023-04-06T09:15:00;6.85;;;3.42;;
44214;SDS011;29884;47.450;19.124;2023-04-06T09:17:31;6.90;;;3.90;;
44214;SDS011;29884;47.450;19.124;2023-04-06T09:19:59;10.65;;;3.88;;
44214;SDS011;29884;47.450;19.124;2023-04-06T09:22:25;32.70;;;4.43;;
44214;SDS011;29884;47.450;19.124;2023-04-06T09:24:59;7.68;;;3.22;;
44214;SDS011;29884;47.450;19.124;2023-04-06T09:35:20;8.32;;;3.13;;
44214;SDS011;29884;47.450;19.124;2023-04-06T09:37:50;9.32;;;4.10;;
44214;SDS011;29884;47.450;19.124;2023-04-06T09:40:16;5.82;;;3.38;;
44214;SDS011;29884;47.450;19.124;2023-04-06T09:42:47;7.53;;;2.85;;
44214;SDS011;29884;47.450;19.124;2023-04-06T09:45:15;11.23;;;2.80;;
44214;SDS011;29884;47.450;19.124;2023-04-06T09:47:45;16.13;;;3.35;;
44214;SDS011;29884;47.450;19.124;2023-04-06T09:50:11;13.02;;;3.35;;
44214;SDS011;29884;47.450;19.124;2023-04-06T09:52:42;5.78;;;3.00;;
44214;SDS011;29884;47.450;19.124;2023-04-06T09:58:09;6.55;;;2.83;;
44214;SDS011;29884;47.450;19.124;2023-04-06T10:00:44;7.25;;;3.22;;
44214;SDS011;29884;47.450;19.124;2023-04-06T10:06:21;7.00;;;3.40;;
44214;SDS011;29884;47.450;19.124;2023-04-06T10:08:49;5.75;;;2.75;;
44214;SDS011;29884;47.450;19.124;2023-04-06T10:11:16;7.65;;;2.63;;
44214;SDS011;29884;47.450;19.124;2023-04-06T10:13:42;7.35;;;3.15;;
44214;SDS011;29884;47.450;19.124;2023-04-06T10:16:12;8.50;;;3.15;;
44214;SDS011;29884;47.450;19.124;2023-04-06T10:18:39;5.68;;;2.97;;
44214;SDS011;29884;47.450;19.124;2023-04-06T10:21:11;7.20;;;3.13;;
44214;SDS011;29884;47.450;19.124;2023-04-06T10:24:00;3.83;;;2.58;;
44214;SDS011;29884;47.450;19.124;2023-04-06T10:26:27;5.53;;;3.08;;
44214;SDS011;29884;47.450;19.124;2023-04-06T10:28:54;5.03;;;3.08;;
44214;SDS011;29884;47.450;19.124;2023-04-06T10:31:26;5.90;;;2.95;;
44214;SDS011;29884;47.450;19.124;2023-04-06T10:33:56;7.18;;;2.95;;
44214;SDS011;29884;47.450;19.124;2023-04-06T10:36:24;5.43;;;3.00;;
44214;SDS011;29884;47.450;19.124;2023-04-06T10:38:56;5.00;;;2.25;;
44214;SDS011;29884;47.450;19.124;2023-04-06T10:41:23;6.90;;;2.90;;
44214;SDS011;29884;47.450;19.124;2023-04-06T10:43:57;7.85;;;2.75;;
44214;SDS011;29884;47.450;19.124;2023-04-06T10:46:28;6.85;;;2.60;;
44214;SDS011;29884;47.450;19.124;2023-04-06T10:48:55;5.88;;;3.28;;
44214;SDS011;29884;47.450;19.124;2023-04-06T10:51:24;8.35;;;3.80;;
44214;SDS011;29884;47.450;19.124;2023-04-06T10:53:52;10.85;;;3.17;;
44214;SDS011;29884;47.450;19.124;2023-04-06T10:56:21;9.45;;;3.30;;
44214;SDS011;29884;47.450;19.124;2023-04-06T10:58:49;5.55;;;2.80;;
44214;SDS011;29884;47.450;19.124;2023-04-06T11:01:17;11.88;;;2.97;;
44214;SDS011;29884;47.450;19.124;2023-04-06T11:03:44;8.00;;;3.20;;
44214;SDS011;29884;47.450;19.124;2023-04-06T11:06:17;6.05;;;2.60;;
44214;SDS011;29884;47.450;19.124;2023-04-06T11:08:46;4.68;;;2.67;;
44214;SDS011;29884;47.450;19.124;2023-04-06T11:11:13;3.92;;;2.00;;
44214;SDS011;29884;47.450;19.124;2023-04-06T11:13:41;4.28;;;2.38;;
44214;SDS011;29884;47.450;19.124;2023-04-06T11:16:13;7.15;;;2.50;;
44214;SDS011;29884;47.450;19.124;2023-04-06T11:18:50;7.97;;;2.63;;
44214;SDS011;29884;47.450;19.124;2023-04-06T11:21:16;10.07;;;2.58;;
44214;SDS011;29884;47.450;19.124;2023-04-06T11:23:42;15.88;;;3.38;;
44214;SDS011;29884;47.450;19.124;2023-04-06T11:26:12;6.40;;;2.47;;
44214;SDS011;29884;47.450;19.124;2023-04-06T11:28:39;7.80;;;2.50;;
44214;SDS011;29884;47.450;19.124;2023-04-06T11:31:07;5.15;;;1.80;;
44214;SDS011;29884;47.450;19.124;2023-04-06T11:33:37;7.22;;;2.33;;
44214;SDS011;29884;47.450;19.124;2023-04-06T11:36:04;19.70;;;2.75;;
44214;SDS011;29884;47.450;19.124;2023-04-06T11:38:30;3.78;;;2.22;;
44214;SDS011;29884;47.450;19.124;2023-04-06T11:40:56;5.18;;;2.45;;
44214;SDS011;29884;47.450;19.124;2023-04-06T11:43:26;4.88;;;2.17;;
44214;SDS011;29884;47.450;19.124;2023-04-06T11:46:02;8.43;;;2.95;;
44214;SDS011;29884;47.450;19.124;2023-04-06T11:48:29;5.10;;;2.35;;
44214;SDS011;29884;47.450;19.124;2023-04-06T11:50:58;8.38;;;2.63;;
44214;SDS011;29884;47.450;19.124;2023-04-06T11:53:29;5.10;;;2.40;;
44214;SDS011;29884;47.450;19.124;2023-04-06T11:55:55;9.32;;;2.67;;
44214;SDS011;29884;47.450;19.124;2023-04-06T11:58:21;6.63;;;2.50;;
44214;SDS011;29884;47.450;19.124;2023-04-06T12:00:47;3.90;;;2.33;;
44214;SDS011;29884;47.450;19.124;2023-04-06T12:03:13;7.40;;;2.78;;
44214;SDS011;29884;47.450;19.124;2023-04-06T12:05:39;3.42;;;2.47;;
44214;SDS011;29884;47.450;19.124;2023-04-06T12:08:05;6.47;;;2.53;;
44214;SDS011;29884;47.450;19.124;2023-04-06T12:10:31;6.38;;;2.33;;
44214;SDS011;29884;47.450;19.124;2023-04-06T12:12:57;3.95;;;2.55;;
44214;SDS011;29884;47.450;19.124;2023-04-06T12:15:23;14.43;;;6.97;;
44214;SDS011;29884;47.450;19.124;2023-04-06T12:17:48;4.90;;;2.67;;
44214;SDS011;29884;47.450;19.124;2023-04-06T12:20:17;4.90;;;2.28;;
44214;SDS011;29884;47.450;19.124;2023-04-06T12:22:43;4.22;;;2.28;;
44214;SDS011;29884;47.450;19.124;2023-04-06T12:25:09;4.75;;;2.30;;
44214;SDS011;29884;47.450;19.124;2023-04-06T12:27:35;4.22;;;2.20;;
44214;SDS011;29884;47.450;19.124;2023-04-06T12:30:01;7.45;;;3.20;;
44214;SDS011;29884;47.450;19.124;2023-04-06T12:32:27;5.70;;;2.30;;
44214;SDS011;29884;47.450;19.124;2023-04-06T12:34:53;5.20;;;2.63;;
44214;SDS011;29884;47.450;19.124;2023-04-06T12:37:19;4.85;;;2.63;;
44214;SDS011;29884;47.450;19.124;2023-04-06T12:39:45;4.13;;;2.58;;
44214;SDS011;29884;47.450;19.124;2023-04-06T12:42:11;5.35;;;2.33;;
44214;SDS011;29884;47.450;19.124;2023-04-06T12:44:38;4.78;;;1.98;;
44214;SDS011;29884;47.450;19.124;2023-04-06T12:47:04;4.70;;;2.50;;
44214;SDS011;29884;47.450;19.124;2023-04-06T12:49:32;4.75;;;2.58;;
44214;SDS011;29884;47.450;19.124;2023-04-06T12:51:58;5.97;;;2.20;;
44214;SDS011;29884;47.450;19.124;2023-04-06T12:54:24;8.57;;;2.50;;
44214;SDS011;29884;47.450;19.124;2023-04-06T12:56:51;5.13;;;3.15;;
44214;SDS011;29884;47.450;19.124;2023-04-06T12:59:17;5.80;;;2.63;;
44214;SDS011;29884;47.450;19.124;2023-04-06T13:01:43;4.82;;;2.42;;
44214;SDS011;29884;47.450;19.124;2023-04-06T13:04:09;3.83;;;2.10;;
44214;SDS011;29884;47.450;19.124;2023-04-06T13:06:35;4.63;;;2.30;;
44214;SDS011;29884;47.450;19.124;2023-04-06T13:09:01;4.47;;;2.13;;
44214;SDS011;29884;47.450;19.124;2023-04-06T13:11:29;4.47;;;2.33;;
44214;SDS011;29884;47.450;19.124;2023-04-06T13:13:55;5.18;;;2.78;;
44214;SDS011;29884;47.450;19.124;2023-04-06T13:16:20;6.97;;;3.47;;
44214;SDS011;29884;47.450;19.124;2023-04-06T13:18:46;6.00;;;2.97;;
44214;SDS011;29884;47.450;19.124;2023-04-06T13:21:15;5.47;;;2.38;;
44214;SDS011;29884;47.450;19.124;2023-04-06T13:23:41;5.32;;;2.40;;
44214;SDS011;29884;47.450;19.124;2023-04-06T13:26:08;4.75;;;2.42;;
44214;SDS011;29884;47.450;19.124;2023-04-06T13:28:35;6.45;;;2.17;;
44214;SDS011;29884;47.450;19.124;2023-04-06T13:31:05;4.53;;;3.00;;
44214;SDS011;29884;47.450;19.124;2023-04-06T13:33:31;6.90;;;3.05;;
44214;SDS011;29884;47.450;19.124;2023-04-06T13:35:57;4.85;;;2.42;;
44214;SDS011;29884;47.450;19.124;2023-04-06T13:38:24;5.68;;;2.65;;
44214;SDS011;29884;47.450;19.124;2023-04-06T13:40:50;6.07;;;2.67;;
44214;SDS011;29884;47.450;19.124;2023-04-06T13:43:15;4.28;;;2.63;;
44214;SDS011;29884;47.450;19.124;2023-04-06T13:45:48;6.13;;;2.42;;
44214;SDS011;29884;47.450;19.124;2023-04-06T13:48:19;6.63;;;2.67;;
44214;SDS011;29884;47.450;19.124;2023-04-06T13:50:45;4.28;;;2.45;;
44214;SDS011;29884;47.450;19.124;2023-04-06T13:53:11;4.47;;;2.35;;
44214;SDS011;29884;47.450;19.124;2023-04-06T13:55:37;3.75;;;2.40;;
44214;SDS011;29884;47.450;19.124;2023-04-06T13:58:03;4.45;;;2.25;;
44214;SDS011;29884;47.450;19.124;2023-04-06T14:00:29;5.05;;;2.67;;
44214;SDS011;29884;47.450;19.124;2023-04-06T14:02:55;5.47;;;2.60;;
44214;SDS011;29884;47.450;19.124;2023-04-06T14:05:21;4.35;;;2.90;;
44214;SDS011;29884;47.450;19.124;2023-04-06T14:07:48;7.10;;;2.20;;
44214;SDS011;29884;47.450;19.124;2023-04-06T14:10:14;4.15;;;2.15;;
44214;SDS011;29884;47.450;19.124;2023-04-06T14:12:43;4.10;;;2.20;;
44214;SDS011;29884;47.450;19.124;2023-04-06T14:15:10;5.25;;;2.10;;
44214;SDS011;29884;47.450;19.124;2023-04-06T14:17:37;6.35;;;2.78;;
44214;SDS011;29884;47.450;19.124;2023-04-06T14:20:04;4.95;;;2.42;;
44214;SDS011;29884;47.450;19.124;2023-04-06T14:22:31;6.25;;;2.45;;
44214;SDS011;29884;47.450;19.124;2023-04-06T14:24:57;3.47;;;2.00;;
44214;SDS011;29884;47.450;19.124;2023-04-06T14:27:23;3.55;;;2.00;;
44214;SDS011;29884;47.450;19.124;2023-04-06T14:29:49;6.40;;;1.95;;
44214;SDS011;29884;47.450;19.124;2023-04-06T14:32:15;5.80;;;2.20;;
44214;SDS011;29884;47.450;19.124;2023-04-06T14:34:41;4.18;;;2.22;;
44214;SDS011;29884;47.450;19.124;2023-04-06T14:37:07;3.45;;;1.95;;
44214;SDS011;29884;47.450;19.124;2023-04-06T14:39:33;4.05;;;1.90;;
44214;SDS011;29884;47.450;19.124;2023-04-06T14:41:59;4.78;;;2.35;;